Time;durP1;ratioP1;P1;durP2;ratioP2;P2;SDS_P1;SDS_P2;PMS_P1;PMS_P2;Temp;Humidity;BMP_temperature;BMP_pressure;BME280_temperature;BME280_humidity;BME280_pressure;Samples;Min_cycle;Max_cycle;Signal;HPM_P1;HPM_P2
2021/11/19 00:01:41;;;;;;;63.17;30.15;;;;;;;4.86;74.85;101489.04;1754233;81;21010;-64
2021/11/19 00:04:08;;;;;;;71.40;33.10;;;;;;;4.80;74.66;101484.63;1750384;81;21071;-63
2021/11/19 00:06:35;;;;;;;71.17;31.75;;;;;;;4.69;75.16;101486.38;1752058;81;21467;-63
2021/11/19 00:09:03;;;;;;;72.87;31.95;;;;;;;4.59;75.32;101486.38;1752717;81;21020;-64
2021/11/19 00:11:34;;;;;;;68.42;32.23;;;;;;;4.52;75.88;101492.53;1754288;81;20997;-63
2021/11/19 00:14:05;;;;;;;76.45;31.80;;;;;;;4.44;76.30;101489.89;1751630;81;21121;-64
2021/11/19 00:16:33;;;;;;;74.12;33.75;;;;;;;4.38;76.91;101481.89;1753161;81;21478;-64
2021/11/19 00:19:00;;;;;;;67.45;33.25;;;;;;;4.32;77.62;101481.88;1717195;82;21164;-64
2021/11/19 00:21:28;;;;;;;72.58;32.33;;;;;;;4.30;77.91;101485.84;1749239;81;20996;-63
2021/11/19 00:23:55;;;;;;;74.53;32.55;;;;;;;4.30;77.91;101485.84;1748136;81;21365;-64
2021/11/19 00:26:24;;;;;;;76.57;32.85;;;;;;;4.26;78.20;101484.53;1746900;81;21007;-64
2021/11/19 00:28:51;;;;;;;69.90;31.37;;;;;;;4.21;78.54;101479.20;1744640;81;21015;-64
2021/11/19 00:31:18;;;;;;;73.28;32.42;;;;;;;4.25;79.06;101470.35;1744290;80;22345;-64
2021/11/19 00:33:44;;;;;;;76.33;33.53;;;;;;;4.25;79.06;101470.35;1743777;80;21512;-64
2021/11/19 00:36:14;;;;;;;76.02;32.63;;;;;;;4.26;79.24;101472.58;1746662;81;21027;-64
2021/11/19 00:38:42;;;;;;;76.30;33.48;;;;;;;4.27;79.31;101475.22;1741636;80;21068;-64
2021/11/19 00:41:09;;;;;;;78.40;33.78;;;;;;;4.32;79.53;101475.70;1732925;81;21085;-64
2021/11/19 00:43:36;;;;;;;80.75;33.88;;;;;;;4.35;79.59;101473.05;1741013;81;21133;-64
2021/11/19 00:46:03;;;;;;;68.35;32.95;;;;;;;4.36;79.62;101465.53;1713924;82;21156;-64
2021/11/19 00:48:32;;;;;;;75.83;33.98;;;;;;;4.38;79.72;101463.76;1748290;81;21089;-63
2021/11/19 00:51:04;;;;;;;71.22;31.75;;;;;;;4.43;79.85;101465.98;1740266;81;21018;-64
2021/11/19 00:53:31;;;;;;;75.85;32.17;;;;;;;4.43;79.85;101465.98;1756960;81;21056;-64
2021/11/19 00:55:57;;;;;;;72.53;32.65;;;;;;;4.44;79.99;101455.38;1718228;82;21187;-64
2021/11/19 00:58:24;;;;;;;77.87;32.20;;;;;;;4.44;79.99;101455.38;1711506;82;21080;-63
2021/11/19 01:01:00;;;;;;;78.10;33.23;;;;;;;4.44;79.99;101458.45;1733127;81;21036;-64
2021/11/19 01:03:27;;;;;;;78.00;32.80;;;;;;;4.42;80.08;101454.91;1774202;79;21345;-63
2021/11/19 01:05:55;;;;;;;67.05;30.23;;;;;;;4.43;80.21;101448.72;1773195;80;21078;-64
2021/11/19 01:08:23;;;;;;;66.95;30.43;;;;;;;4.44;80.37;101436.78;1780235;79;21145;-64
2021/11/19 01:10:52;;;;;;;68.78;31.62;;;;;;;4.45;80.31;101438.98;1774405;79;21462;-64
2021/11/19 01:13:19;;;;;;;72.35;32.35;;;;;;;4.44;80.55;101451.81;1776090;79;21080;-64
2021/11/19 01:15:54;;;;;;;67.47;31.82;;;;;;;4.43;80.64;101455.36;1747674;80;21519;-63
2021/11/19 01:18:35;;;;;;;76.42;33.38;;;;;;;4.44;80.83;101449.16;1781385;79;21507;-64
2021/11/19 01:21:14;;;;;;;74.92;32.67;;;;;;;4.49;80.87;101453.16;1773363;79;21189;-63
2021/11/19 01:23:42;;;;;;;76.90;32.88;;;;;;;4.47;80.86;101462.44;1776216;79;21377;-64
2021/11/19 01:26:22;;;;;;;77.30;33.13;;;;;;;4.41;81.04;101459.78;1781553;79;21012;-64
2021/11/19 01:28:49;;;;;;;79.85;33.23;;;;;;;4.36;81.33;101465.07;1774529;79;21033;-63
2021/11/19 01:31:20;;;;;;;66.50;30.17;;;;;;;4.34;81.54;101461.53;1776469;79;21058;-65
2021/11/19 01:33:48;;;;;;;71.77;30.48;;;;;;;4.30;82.04;101463.28;1774180;79;21810;-63
2021/11/19 01:36:32;;;;;;;77.05;34.13;;;;;;;4.28;82.42;101457.54;1769812;79;21004;-63
2021/11/19 01:39:10;;;;;;;65.05;31.87;;;;;;;4.27;82.71;101454.44;1726757;79;21068;-64
2021/11/19 01:42:11;;;;;;;66.40;31.37;;;;;;;4.27;82.92;101459.30;1774417;79;21053;-64
2021/11/19 01:44:55;;;;;;;75.07;33.50;;;;;;;4.27;83.06;101457.97;1774437;79;21133;-63
2021/11/19 01:47:24;;;;;;;72.25;32.55;;;;;;;4.30;83.20;101455.77;1775368;79;21123;-64
2021/11/19 01:49:51;;;;;;;71.87;30.75;;;;;;;4.33;83.57;101451.80;1777935;79;21002;-57
2021/11/19 01:52:23;;;;;;;78.60;32.75;;;;;;;4.36;83.58;101448.27;1774319;79;20957;-64
2021/11/19 01:54:55;;;;;;;71.07;32.80;;;;;;;4.42;83.86;101453.16;1779395;79;20966;-57
2021/11/19 01:57:34;;;;;;;71.55;32.53;;;;;;;4.42;83.86;101453.16;1777857;79;21040;-64
2021/11/19 02:00:12;;;;;;;72.85;31.80;;;;;;;4.48;84.07;101453.59;1785611;79;21791;-64
2021/11/19 02:02:45;;;;;;;73.55;33.08;;;;;;;4.51;84.14;101454.91;1785677;78;21036;-58
2021/11/19 02:05:28;;;;;;;72.97;32.75;;;;;;;4.53;84.31;101458.48;1788262;78;21466;-57
2021/11/19 02:07:59;;;;;;;70.32;33.08;;;;;;;4.56;84.88;101450.95;1773699;79;21461;-57
2021/11/19 02:11:10;;;;;;;67.10;32.75;;;;;;;4.56;84.88;101450.95;1783797;79;21043;-57
2021/11/19 02:13:46;;;;;;;73.42;32.45;;;;;;;4.59;84.88;101457.16;1786530;79;21147;-57
2021/11/19 02:16:20;;;;;;;74.25;33.42;;;;;;;4.59;85.35;101449.19;1782589;79;21490;-63
2021/11/19 02:18:55;;;;;;;71.50;32.25;;;;;;;4.59;85.35;101449.19;1784562;78;21501;-59
2021/11/19 02:21:36;;;;;;;70.50;33.25;;;;;;;4.68;85.47;101450.07;1784722;79;21524;-57
2021/11/19 02:24:08;;;;;;;68.92;32.38;;;;;;;4.71;85.46;101450.07;1780564;79;21386;-56
2021/11/19 02:26:39;;;;;;;76.00;33.80;;;;;;;4.75;85.61;101448.31;1786556;79;21479;-64
2021/11/19 02:29:07;;;;;;;82.53;34.35;;;;;;;4.75;85.61;101448.31;1780080;79;22003;-63
2021/11/19 02:32:01;;;;;;;75.83;33.38;;;;;;;4.75;85.74;101445.20;1775275;79;21019;-64
2021/11/19 02:34:30;;;;;;;78.75;33.05;;;;;;;4.76;85.80;101443.02;1782563;78;21470;-64
2021/11/19 02:37:21;;;;;;;75.40;33.28;;;;;;;4.77;85.91;101450.09;1778011;79;21608;-64
2021/11/19 02:39:53;;;;;;;73.05;32.30;;;;;;;4.76;86.08;101444.77;1781820;79;21797;-64
2021/11/19 02:42:25;;;;;;;69.72;32.60;;;;;;;4.76;86.08;101444.77;1783191;79;21030;-63
2021/11/19 02:44:54;;;;;;;71.40;31.97;;;;;;;4.81;86.10;101442.56;1788824;79;21114;-56
2021/11/19 02:47:26;;;;;;;74.58;31.50;;;;;;;4.82;86.12;101432.38;1784206;79;21060;-64
2021/11/19 02:49:52;;;;;;;74.65;33.33;;;;;;;4.83;86.08;101439.45;1781179;78;20940;-63
2021/11/19 02:52:30;;;;;;;70.42;32.60;;;;;;;4.84;86.07;101439.90;1781357;79;21132;-63
2021/11/19 02:54:57;;;;;;;73.75;33.28;;;;;;;4.84;86.07;101435.91;1783351;79;21257;-63
2021/11/19 02:57:25;;;;;;;73.67;33.15;;;;;;;4.83;86.16;101439.89;1788110;78;21529;-57
2021/11/19 02:59:54;;;;;;;65.70;31.20;;;;;;;4.86;86.28;101432.81;1779335;79;21271;-63
2021/11/19 03:02:26;;;;;;;66.40;31.93;;;;;;;4.91;86.21;101430.59;1783275;79;21181;-63
2021/11/19 03:04:59;;;;;;;62.10;29.00;;;;;;;4.95;86.22;101435.01;1781251;79;21125;-58
2021/11/19 03:07:27;;;;;;;71.20;33.02;;;;;;;4.93;85.99;101426.16;1781088;80;21072;-64
2021/11/19 03:10:02;;;;;;;74.05;33.05;;;;;;;4.90;85.89;101430.14;1786696;80;21040;-63
2021/11/19 03:12:32;;;;;;;67.92;32.55;;;;;;;4.86;86.04;101434.14;1770253;80;28169;-64
2021/11/19 03:15:03;;;;;;;65.75;30.65;;;;;;;4.86;86.13;101431.91;1787405;80;21051;-55
2021/11/19 03:17:31;;;;;;;72.42;33.65;;;;;;;4.87;86.21;101431.92;1785270;79;21376;-56
2021/11/19 03:19:58;;;;;;;71.45;33.00;;;;;;;4.89;86.31;101427.95;1780318;79;21081;-56
2021/11/19 03:22:27;;;;;;;75.52;33.88;;;;;;;4.94;86.23;101426.17;1789201;79;20970;-63
2021/11/19 03:24:54;;;;;;;75.20;34.05;;;;;;;4.97;86.05;101434.13;1788369;79;21025;-57
2021/11/19 03:27:21;;;;;;;69.95;33.40;;;;;;;4.98;85.80;101429.72;1786584;80;21014;-57
2021/11/19 03:29:50;;;;;;;73.07;33.35;;;;;;;4.99;85.79;101424.84;1783058;79;21975;-58
2021/11/19 03:32:21;;;;;;;70.72;32.20;;;;;;;4.99;85.79;101424.84;1784384;79;21530;-56
2021/11/19 03:34:48;;;;;;;81.97;33.75;;;;;;;5.04;85.71;101424.39;1783531;79;21027;-56
2021/11/19 03:37:14;;;;;;;77.75;33.78;;;;;;;5.06;85.35;101427.93;1782762;79;21065;-56
2021/11/19 03:39:41;;;;;;;66.10;31.65;;;;;;;5.05;85.26;101433.23;1783521;78;21049;-56
2021/11/19 03:42:10;;;;;;;79.72;34.18;;;;;;;5.01;85.22;101425.27;1784420;79;21192;-63
2021/11/19 03:44:43;;;;;;;75.62;34.65;;;;;;;5.00;85.21;101424.83;1782297;79;21490;-63
2021/11/19 03:47:19;;;;;;;70.32;33.50;;;;;;;5.00;85.23;101409.34;1788094;79;21279;-64
2021/11/19 03:49:47;;;;;;;69.30;32.53;;;;;;;4.99;85.06;101407.57;1787673;79;21533;-63
2021/11/19 03:52:31;;;;;;;80.45;33.23;;;;;;;4.99;85.20;101408.90;1774291;79;21591;-64
2021/11/19 03:55:06;;;;;;;75.25;34.40;;;;;;;4.98;85.23;101411.12;1786971;79;21619;-63
2021/11/19 03:57:34;;;;;;;78.60;36.40;;;;;;;4.92;85.22;101415.09;1785775;79;21742;-57
2021/11/19 04:00:07;;;;;;;79.35;32.55;;;;;;;4.83;85.35;101412.89;1782251;78;21082;-58
2021/11/19 04:02:35;;;;;;;79.42;33.67;;;;;;;4.77;85.62;101408.91;1786632;79;21365;-56
2021/11/19 04:05:04;;;;;;;72.92;33.78;;;;;;;4.71;85.82;101410.22;1784438;80;21116;-57
2021/11/19 04:07:31;;;;;;;80.53;34.48;;;;;;;4.65;86.25;101423.08;1776903;80;21115;-57
2021/11/19 04:09:58;;;;;;;71.75;32.73;;;;;;;4.62;86.69;101431.48;1785563;80;20966;-57
2021/11/19 04:12:25;;;;;;;75.05;32.55;;;;;;;4.62;86.69;101431.48;1780516;80;21669;-58
2021/11/19 04:14:52;;;;;;;75.30;32.88;;;;;;;4.48;87.18;101424.38;1776671;80;20955;-58
2021/11/19 04:17:19;;;;;;;75.40;34.43;;;;;;;4.48;87.18;101424.38;1785813;78;21020;-64
2021/11/19 04:19:47;;;;;;;75.10;34.25;;;;;;;4.40;87.68;101419.51;1783669;78;21531;-58
2021/11/19 04:22:16;;;;;;;76.12;32.65;;;;;;;4.40;87.68;101419.51;1781654;80;21101;-57
2021/11/19 04:24:48;;;;;;;78.92;34.15;;;;;;;4.40;87.86;101419.51;1783993;80;21452;-64
2021/11/19 04:27:15;;;;;;;83.25;35.85;;;;;;;4.35;87.94;101416.83;1777207;80;21094;-57
2021/11/19 04:29:44;;;;;;;77.35;33.60;;;;;;;4.35;88.20;101414.18;1776875;80;21035;-58
2021/11/19 04:32:22;;;;;;;78.17;34.63;;;;;;;4.35;88.25;101410.20;1784518;79;21121;-64
2021/11/19 04:34:48;;;;;;;81.05;35.00;;;;;;;4.37;88.37;101426.14;1786011;79;21439;-64
2021/11/19 04:37:15;;;;;;;73.40;33.10;;;;;;;4.35;88.61;101414.64;1784185;78;21056;-57
2021/11/19 04:39:42;;;;;;;75.78;33.98;;;;;;;4.36;88.70;101409.77;1778073;80;21141;-56
2021/11/19 04:42:09;;;;;;;82.12;35.48;;;;;;;4.38;88.72;101419.95;1777404;79;21113;-58
2021/11/19 04:44:36;;;;;;;80.95;33.58;;;;;;;4.40;88.94;101410.22;1784330;79;21465;-58
2021/11/19 04:47:03;;;;;;;78.85;34.88;;;;;;;4.40;88.94;101410.22;1785423;80;21056;-57
2021/11/19 04:49:31;;;;;;;76.12;35.25;;;;;;;4.44;89.04;101415.54;1783541;79;21034;-57
2021/11/19 04:51:59;;;;;;;81.17;34.43;;;;;;;4.49;89.07;101418.64;1780474;78;38405;-57
2021/11/19 04:54:26;;;;;;;74.15;34.35;;;;;;;4.54;89.03;101419.09;1778905;79;22160;-56
2021/11/19 04:56:53;;;;;;;71.60;32.50;;;;;;;4.56;88.94;101414.66;1779783;79;21122;-64
2021/11/19 04:59:21;;;;;;;74.72;33.58;;;;;;;4.58;88.87;101413.32;1781668;79;22186;-64
2021/11/19 05:01:53;;;;;;;81.75;35.50;;;;;;;4.60;88.86;101416.86;1781232;78;21024;-64
2021/11/19 05:04:21;;;;;;;76.97;32.93;;;;;;;4.65;88.96;101412.45;1785595;79;21075;-57
2021/11/19 05:06:49;;;;;;;79.17;35.08;;;;;;;4.72;88.86;101414.64;1788282;79;21159;-57
2021/11/19 05:09:16;;;;;;;74.67;32.08;;;;;;;4.80;88.70;101414.22;1784821;78;21180;-64
2021/11/19 05:11:57;;;;;;;76.77;35.08;;;;;;;4.87;88.55;101414.65;1778247;80;20986;-64
2021/11/19 05:14:23;;;;;;;75.10;32.65;;;;;;;4.94;88.42;101415.97;1779306;79;21030;-65
2021/11/19 05:16:51;;;;;;;82.67;35.55;;;;;;;5.00;88.28;101419.51;1778563;80;20978;-57
2021/11/19 05:19:17;;;;;;;75.17;33.40;;;;;;;5.04;88.01;101417.75;1786514;80;21075;-64
2021/11/19 05:21:45;;;;;;;74.12;33.28;;;;;;;5.20;87.75;101416.40;1788369;79;21440;-64
2021/11/19 05:24:12;;;;;;;77.32;33.33;;;;;;;5.20;87.75;101416.40;1785544;79;21099;-64
2021/11/19 05:26:41;;;;;;;68.20;32.75;;;;;;;5.26;86.93;101434.99;1781260;80;21057;-57
2021/11/19 05:29:09;;;;;;;72.12;33.55;;;;;;;5.26;86.93;101434.99;1782314;79;21501;-57
2021/11/19 05:31:36;;;;;;;70.03;32.88;;;;;;;5.26;86.71;101432.33;1782295;78;21427;-64
2021/11/19 05:34:03;;;;;;;76.42;34.10;;;;;;;5.27;86.24;101426.13;1775068;78;21131;-57
2021/11/19 05:36:31;;;;;;;70.40;31.85;;;;;;;5.27;86.24;101426.13;1786580;79;21032;-63
2021/11/19 05:38:57;;;;;;;71.22;32.63;;;;;;;5.29;86.31;101440.30;1773405;80;20988;-57
2021/11/19 05:41:25;;;;;;;72.50;32.70;;;;;;;5.31;86.17;101429.21;1785476;79;21441;-64
2021/11/19 05:43:52;;;;;;;73.33;34.15;;;;;;;5.33;86.10;101431.88;1764015;80;21402;-65
2021/11/19 05:46:29;;;;;;;69.53;32.70;;;;;;;5.35;86.12;101428.31;1784936;78;21737;-63
2021/11/19 05:48:57;;;;;;;77.60;32.95;;;;;;;5.39;85.96;101423.87;1786203;79;20981;-64
2021/11/19 05:51:25;;;;;;;85.28;34.48;;;;;;;5.39;85.96;101423.87;1789852;79;20994;-65
2021/11/19 05:53:52;;;;;;;75.90;33.25;;;;;;;5.40;85.65;101431.84;1776927;78;20975;-64
2021/11/19 05:56:21;;;;;;;68.57;32.15;;;;;;;5.39;85.57;101427.41;1778810;80;21038;-57
2021/11/19 05:58:48;;;;;;;70.60;32.73;;;;;;;5.37;85.64;101422.54;1780742;79;21873;-64
2021/11/19 06:01:19;;;;;;;74.00;32.93;;;;;;;5.37;85.64;101422.54;1773109;79;21527;-57
2021/11/19 06:03:48;;;;;;;73.10;33.08;;;;;;;5.41;85.57;101420.77;1776123;78;21038;-59
2021/11/19 06:06:19;;;;;;;67.08;31.12;;;;;;;5.42;85.50;101430.09;1782760;79;21075;-58
2021/11/19 06:08:54;;;;;;;;;;;;;;;5.42;85.44;101419.87;1783641;79;20973;-57
2021/11/19 06:11:29;;;;;;;68.33;30.17;;;;;;;5.40;85.37;101422.53;1766694;80;21833;-64
2021/11/19 06:14:06;;;;;;;69.37;31.48;;;;;;;5.39;85.40;101419.89;1771304;79;24654;-56
2021/11/19 06:16:39;;;;;;;66.53;31.87;;;;;;;5.42;85.46;101419.87;1771334;80;21462;-64
2021/11/19 06:19:10;;;;;;;73.10;31.17;;;;;;;5.47;85.48;101415.42;1780638;79;21107;-64
2021/11/19 06:21:42;;;;;;;77.08;32.75;;;;;;;5.55;85.35;101420.72;1784713;78;21038;-65
2021/11/19 06:24:13;;;;;;;75.85;33.23;;;;;;;5.57;85.03;101426.92;1784152;79;21572;-64
2021/11/19 06:26:42;;;;;;;79.55;32.50;;;;;;;5.57;84.94;101421.17;1785829;79;21990;-57
2021/11/19 06:29:09;;;;;;;71.22;31.27;;;;;;;5.58;84.80;101418.95;1781685;79;21458;-57
2021/11/19 06:31:39;;;;;;;64.67;30.50;;;;;;;5.57;84.66;101414.95;1786588;79;21081;-57
2021/11/19 06:34:07;;;;;;;66.25;30.45;;;;;;;5.58;84.72;101418.05;1784923;79;21013;-57
2021/11/19 06:36:33;;;;;;;66.33;31.05;;;;;;;5.62;84.71;101418.93;1779914;78;21937;-57
2021/11/19 06:39:01;;;;;;;61.35;30.32;;;;;;;5.66;84.73;101416.27;1777457;79;21463;-58
2021/11/19 06:41:28;;;;;;;67.27;31.10;;;;;;;5.69;84.42;101422.90;1780798;79;21098;-58
2021/11/19 06:44:06;;;;;;;72.67;31.82;;;;;;;5.65;84.28;101427.80;1779943;79;21064;-57
2021/11/19 06:46:34;;;;;;;71.40;31.27;;;;;;;5.62;84.22;101430.44;1775494;79;21042;-57
2021/11/19 06:49:12;;;;;;;63.15;29.30;;;;;;;5.60;84.21;101426.91;1766501;79;21093;-58
2021/11/19 06:51:54;;;;;;;64.97;29.82;;;;;;;5.59;84.37;101426.47;1779749;79;21451;-61
2021/11/19 06:54:38;;;;;;;70.35;29.48;;;;;;;5.59;84.36;101422.47;1782758;79;21336;-58
2021/11/19 06:57:13;;;;;;;;;;;;;;;5.63;84.49;101425.56;1779591;79;21516;-58
2021/11/19 06:59:43;;;;;;;62.85;26.93;;;;;;;5.65;84.46;101419.81;1776210;79;20178;-59
2021/11/19 07:02:11;;;;;;;62.90;28.95;;;;;;;5.69;84.50;101410.92;1764607;79;21095;-59
2021/11/19 07:04:38;;;;;;;57.58;26.00;;;;;;;5.74;84.35;101407.80;1763448;79;21750;-58
2021/11/19 07:07:07;;;;;;;62.33;28.00;;;;;;;5.80;84.23;101402.00;1762010;79;21608;-60
2021/11/19 07:09:37;;;;;;;63.85;27.10;;;;;;;5.80;84.07;101404.22;1756910;79;21016;-58
2021/11/19 07:12:07;;;;;;;59.75;26.97;;;;;;;5.83;84.17;101407.30;1758419;79;21038;-57
2021/11/19 07:14:37;;;;;;;53.10;26.25;;;;;;;5.89;84.04;101401.97;1752509;79;21227;-58
2021/11/19 07:17:07;;;;;;;62.07;26.33;;;;;;;5.93;83.96;101394.83;1756507;79;21052;-58
2021/11/19 07:19:35;;;;;;;60.85;27.82;;;;;;;5.98;83.90;101385.94;1764518;79;21220;-58
2021/11/19 07:22:02;;;;;;;61.15;27.58;;;;;;;6.04;83.70;101390.38;1761156;79;21450;-58
2021/11/19 07:24:33;;;;;;;55.50;27.02;;;;;;;6.09;83.57;101389.03;1760380;79;21087;-60
2021/11/19 07:27:02;;;;;;;79.53;27.20;;;;;;;6.16;83.56;101380.10;1763314;79;21134;-58
2021/11/19 07:29:30;;;;;;;57.53;25.55;;;;;;;6.24;83.14;101382.25;1763275;79;21881;-58
2021/11/19 07:31:59;;;;;;;56.90;26.93;;;;;;;6.29;82.95;101379.11;1761213;79;21112;-59
2021/11/19 07:34:34;;;;;;;60.75;26.48;;;;;;;6.34;82.74;101380.88;1763977;79;21044;-59
2021/11/19 07:37:06;;;;;;;55.03;24.35;;;;;;;6.37;82.62;101386.17;1767213;79;21088;-59
2021/11/19 07:39:35;;;;;;;56.28;27.27;;;;;;;6.45;82.61;101378.56;1764651;79;21871;-57
2021/11/19 07:42:09;;;;;;;53.52;25.62;;;;;;;6.53;82.59;101383.84;1765649;79;21548;-58
2021/11/19 07:44:57;;;;;;;52.55;25.75;;;;;;;6.68;82.62;101376.59;1760717;78;21036;-60
2021/11/19 07:47:42;;;;;;;53.33;25.70;;;;;;;6.86;82.23;101371.09;1765658;79;21541;-59
2021/11/19 07:50:15;;;;;;;53.08;24.18;;;;;;;7.03;81.90;101375.39;1768700;79;21084;-58
2021/11/19 07:52:42;;;;;;;59.75;25.55;;;;;;;7.13;81.05;101372.18;1766315;79;21546;-66
2021/11/19 07:55:09;;;;;;;48.78;23.85;;;;;;;7.19;80.56;101371.23;1773385;79;21056;-66
2021/11/19 07:57:37;;;;;;;48.92;24.15;;;;;;;7.26;80.16;101374.26;1767009;79;21067;-64
2021/11/19 08:00:09;;;;;;;56.53;23.70;;;;;;;7.29;79.48;101375.55;1766228;79;21116;-64
2021/11/19 08:02:39;;;;;;;45.10;22.48;;;;;;;7.33;79.53;101381.75;1767288;79;21073;-59
2021/11/19 08:05:09;;;;;;;50.40;22.95;;;;;;;7.36;79.23;101374.58;1767649;79;21827;-57
2021/11/19 08:07:37;;;;;;;49.85;22.42;;;;;;;7.42;79.11;101373.63;1770839;79;21140;-58
2021/11/19 08:10:22;;;;;;;45.17;21.10;;;;;;;7.48;78.91;101372.68;1764717;79;21131;-58
2021/11/19 08:12:50;;;;;;;44.03;20.72;;;;;;;7.55;78.52;101363.69;1769079;79;21096;-60
2021/11/19 08:15:24;;;;;;;43.13;19.65;;;;;;;7.60;77.99;101360.06;1762430;79;21071;-59
2021/11/19 08:17:55;;;;;;;42.95;20.48;;;;;;;7.63;77.78;101367.16;1728070;81;21103;-58
2021/11/19 08:20:28;;;;;;;45.92;20.17;;;;;;;7.71;77.79;101367.93;1720180;81;20984;-58
2021/11/19 08:22:55;;;;;;;39.63;19.27;;;;;;;7.82;77.67;101362.88;1713545;81;20983;-58
2021/11/19 08:25:24;;;;;;;47.53;20.57;;;;;;;7.94;77.50;101368.06;1720119;82;21077;-60
2021/11/19 08:27:54;;;;;;;43.48;20.52;;;;;;;8.03;76.68;101367.92;1727532;81;21108;-57
2021/11/19 08:30:31;;;;;;;47.78;21.45;;;;;;;8.08;76.48;101364.33;1722051;81;21093;-58
2021/11/19 08:33:02;;;;;;;43.90;19.52;;;;;;;8.20;76.33;101357.45;1718390;81;21403;-57
2021/11/19 08:35:30;;;;;;;41.58;20.23;;;;;;;8.27;75.68;101354.23;1760841;79;21076;-58
2021/11/19 08:37:57;;;;;;;40.00;19.23;;;;;;;8.36;75.20;101354.55;1768158;79;21080;-59
2021/11/19 08:40:25;;;;;;;45.25;19.90;;;;;;;8.43;74.94;101354.86;1766506;79;21067;-58
2021/11/19 08:42:52;;;;;;;42.55;20.88;;;;;;;8.48;74.51;101358.34;1764146;79;21516;-58
2021/11/19 08:45:20;;;;;;;44.58;19.27;;;;;;;8.53;74.40;101339.59;1760426;79;21073;-58
2021/11/19 08:47:48;;;;;;;41.30;18.80;;;;;;;8.58;74.24;101327.92;1761028;79;21024;-58
2021/11/19 08:50:16;;;;;;;32.98;18.37;;;;;;;8.69;74.15;101325.06;1762639;79;21596;-60
2021/11/19 08:52:43;;;;;;;40.28;18.57;;;;;;;8.82;73.75;101319.03;1764543;80;21425;-58
2021/11/19 08:55:11;;;;;;;37.78;18.65;;;;;;;8.89;73.13;101318.47;1757191;79;21552;-58
2021/11/19 08:57:41;;;;;;;43.23;17.52;;;;;;;8.93;72.73;101319.27;1764819;79;21087;-59
2021/11/19 09:00:17;;;;;;;36.25;17.48;;;;;;;8.97;72.71;101313.84;1762415;79;21628;-57
2021/11/19 09:02:43;;;;;;;36.55;17.57;;;;;;;9.05;72.07;101315.47;1765526;79;21092;-57
2021/11/19 09:05:11;;;;;;;40.40;19.27;;;;;;;9.10;71.88;101314.48;1767846;79;20973;-60
2021/11/19 09:07:39;;;;;;;34.23;16.82;;;;;;;9.16;71.66;101304.98;1766255;79;21252;-59
2021/11/19 09:10:10;;;;;;;36.40;17.52;;;;;;;9.24;71.23;101302.16;1766672;79;21088;-56
2021/11/19 09:12:37;;;;;;;38.58;18.12;;;;;;;9.31;70.71;101300.24;1760492;79;21005;-64
2021/11/19 09:15:07;;;;;;;31.25;15.55;;;;;;;9.37;70.48;101290.73;1760307;79;20965;-64
2021/11/19 09:18:03;;;;;;;30.27;15.58;;;;;;;9.44;70.31;101283.02;1762854;79;21086;-66
2021/11/19 09:21:11;;;;;;;29.57;15.25;;;;;;;9.57;69.38;101286.75;1717156;81;21355;-58
2021/11/19 09:23:49;;;;;;;30.17;15.30;;;;;;;9.63;68.74;101283.06;1765147;79;21085;-64
2021/11/19 09:26:19;;;;;;;30.48;15.63;;;;;;;9.67;68.38;101270.92;1769061;79;21005;-58
2021/11/19 09:28:49;;;;;;;31.40;14.40;;;;;;;9.67;68.33;101268.24;1762593;79;21085;-64
2021/11/19 09:31:19;;;;;;;25.20;13.22;;;;;;;9.71;68.24;101254.30;1768329;78;21013;-63
2021/11/19 09:33:47;;;;;;;24.35;12.28;;;;;;;9.79;67.75;101247.43;1750502;80;21117;-64
2021/11/19 09:36:14;;;;;;;25.50;13.08;;;;;;;9.85;67.24;101242.81;1769101;79;21061;-65
2021/11/19 09:38:41;;;;;;;25.20;11.85;;;;;;;9.93;66.68;101238.61;1768367;79;21013;-64
2021/11/19 09:41:19;;;;;;;18.87;10.25;;;;;;;10.00;66.21;101232.66;1763709;79;21496;-65
2021/11/19 09:44:06;;;;;;;27.67;10.85;;;;;;;10.12;65.94;101234.14;1767282;79;21084;-59
2021/11/19 09:47:00;;;;;;;23.02;9.93;;;;;;;10.25;65.39;101230.20;1769978;79;21241;-58
2021/11/19 09:50:13;;;;;;;29.60;10.82;;;;;;;10.35;63.93;101226.83;1760171;79;21081;-58
2021/11/19 09:53:39;;;;;;;22.67;10.75;;;;;;;10.38;63.52;101220.52;1761021;79;21273;-62
2021/11/19 09:56:49;;;;;;;17.27;9.53;;;;;;;10.44;63.39;101213.23;1766748;79;21053;-63
2021/11/19 09:59:48;;;;;;;21.37;9.03;;;;;;;10.53;63.05;101214.79;1761242;78;21974;-62
2021/11/19 10:02:47;;;;;;;23.40;9.55;;;;;;;10.66;62.68;101206.38;1776094;78;21828;-57
2021/11/19 10:05:22;;;;;;;21.55;9.78;;;;;;;10.81;62.06;101203.28;1780836;78;21630;-57
2021/11/19 10:08:05;;;;;;;19.40;8.15;;;;;;;10.93;61.81;101205.17;1780678;78;21044;-63
2021/11/19 10:10:55;;;;;;;20.97;8.43;;;;;;;11.06;60.73;101202.55;1780559;78;21126;-62
2021/11/19 10:13:47;;;;;;;24.07;8.00;;;;;;;11.09;59.08;101198.44;1775787;78;21746;-62
2021/11/19 10:16:36;;;;;;;19.90;7.55;;;;;;;11.06;59.47;101189.14;1774384;78;21557;-62
2021/11/19 10:19:08;;;;;;;24.32;7.92;;;;;;;11.15;59.39;101193.34;1778595;78;21083;-58
2021/11/19 10:22:00;;;;;;;28.05;8.78;;;;;;;11.21;58.84;101189.61;1782772;78;21551;-62
2021/11/19 10:24:47;;;;;;;20.17;7.78;;;;;;;11.25;58.52;101191.27;1777767;78;21084;-57
2021/11/19 10:27:19;;;;;;;24.00;9.65;;;;;;;11.26;58.46;101184.97;1775937;78;21396;-62
2021/11/19 10:30:00;;;;;;;21.75;9.43;;;;;;;11.29;58.70;101186.22;1778094;78;21114;-56
2021/11/19 10:32:29;;;;;;;24.98;9.83;;;;;;;11.34;58.40;101172.17;1774049;78;21107;-62
2021/11/19 10:35:35;;;;;;;21.77;9.50;;;;;;;11.37;58.50;101171.21;1785261;78;20944;-62
2021/11/19 10:38:25;;;;;;;21.82;9.65;;;;;;;11.38;58.52;101167.60;1787957;78;20940;-64
2021/11/19 10:41:31;;;;;;;21.50;10.55;;;;;;;11.40;58.88;101165.74;1789811;78;21056;-57
2021/11/19 10:44:27;;;;;;;;;;;;;;;11.40;58.89;101163.06;1787456;78;21537;-63
2021/11/19 10:47:18;;;;;;;;;;;;;;;11.42;59.45;101155.83;1778996;78;20297;-62
2021/11/19 10:50:15;;;;;;;17.65;9.90;;;;;;;11.40;59.67;101145.16;1780870;78;20234;-55
2021/11/19 10:53:22;;;;;;;26.75;12.28;;;;;;;11.40;59.85;101146.50;1778997;78;21105;-63
2021/11/19 10:56:24;;;;;;;27.22;11.57;;;;;;;11.42;59.82;101141.95;1757408;78;21083;-56
2021/11/19 10:58:57;;;;;;;30.32;12.15;;;;;;;11.40;59.87;101145.16;1775460;78;21673;-56
2021/11/19 11:01:44;;;;;;;24.33;12.47;;;;;;;11.42;59.88;101133.01;1773486;78;21068;-57
2021/11/19 11:04:28;;;;;;;21.97;11.55;;;;;;;11.42;59.95;101124.50;1763232;79;21548;-63
2021/11/19 11:07:19;;;;;;;24.70;12.03;;;;;;;11.44;59.96;101117.28;1761058;79;21088;-62
2021/11/19 11:10:10;;;;;;;28.38;13.28;;;;;;;11.46;59.88;101104.67;1765694;78;20906;-63
2021/11/19 11:12:48;;;;;;;21.60;12.13;;;;;;;11.45;60.05;101106.05;1764642;79;21652;-62
2021/11/19 11:15:30;;;;;;;25.08;12.60;;;;;;;11.43;60.21;101094.49;1762606;79;22238;-61
2021/11/19 11:18:06;;;;;;;28.35;13.15;;;;;;;11.44;60.19;101101.17;1728935;81;21212;-63
2021/11/19 11:20:55;;;;;;;20.75;11.40;;;;;;;11.49;60.39;101098.79;1727031;81;21423;-57
2021/11/19 11:23:51;;;;;;;23.60;11.15;;;;;;;11.56;60.29;101098.98;1702654;81;20942;-56
2021/11/19 11:26:28;;;;;;;31.55;11.22;;;;;;;11.63;59.98;101099.66;1718371;82;21726;-64
2021/11/19 11:29:18;;;;;;;24.50;10.72;;;;;;;11.72;59.70;101098.03;1719525;81;21135;-57
2021/11/19 11:32:03;;;;;;;17.77;9.50;;;;;;;11.81;59.23;101096.80;1717418;81;21055;-55
2021/11/19 11:34:46;;;;;;;27.05;10.50;;;;;;;11.89;58.58;101090.23;1666058;81;21049;-62
2021/11/19 11:37:21;;;;;;;19.50;8.70;;;;;;;11.96;58.01;101087.35;1717889;81;21472;-63
2021/11/19 11:40:27;;;;;;;17.65;8.53;;;;;;;12.00;57.39;101088.51;1716460;81;21158;-63
2021/11/19 11:43:19;;;;;;;22.20;7.22;;;;;;;12.07;57.07;101076.25;1720143;82;21071;-58
2021/11/19 11:45:53;;;;;;;14.95;6.28;;;;;;;12.17;56.23;101079.00;1762472;79;21076;-56
2021/11/19 11:48:46;;;;;;;14.10;5.80;;;;;;;12.21;55.47;101081.98;1765769;78;21139;-57